sensor_id;sensor_type;location;lat;lon;timestamp;temperature;humidity
68480;DHT22;55469;48.934;12.050;2022-08-14T00:00:12;25.70;41.00
68480;DHT22;55469;48.934;12.050;2022-08-14T00:02:41;25.70;41.00
68480;DHT22;55469;48.934;12.050;2022-08-14T00:05:08;25.70;41.00
68480;DHT22;55469;48.934;12.050;2022-08-14T00:07:35;25.80;41.10
68480;DHT22;55469;48.934;12.050;2022-08-14T00:10:03;25.80;41.00
68480;DHT22;55469;48.934;12.050;2022-08-14T00:12:32;25.70;40.90
68480;DHT22;55469;48.934;12.050;2022-08-14T00:15:14;25.70;41.10
68480;DHT22;55469;48.934;12.050;2022-08-14T00:17:43;25.70;41.10
68480;DHT22;55469;48.934;12.050;2022-08-14T00:20:10;25.70;41.20
68480;DHT22;55469;48.934;12.050;2022-08-14T00:22:37;25.70;41.30
68480;DHT22;55469;48.934;12.050;2022-08-14T00:25:05;25.70;41.30
68480;DHT22;55469;48.934;12.050;2022-08-14T00:27:31;25.60;41.30
68480;DHT22;55469;48.934;12.050;2022-08-14T00:29:57;25.70;41.30
68480;DHT22;55469;48.934;12.050;2022-08-14T00:32:23;25.60;41.30
68480;DHT22;55469;48.934;12.050;2022-08-14T00:34:48;25.60;41.40
68480;DHT22;55469;48.934;12.050;2022-08-14T00:37:14;25.60;41.50
68480;DHT22;55469;48.934;12.050;2022-08-14T00:39:40;25.60;41.40
68480;DHT22;55469;48.934;12.050;2022-08-14T00:42:06;25.60;41.50
68480;DHT22;55469;48.934;12.050;2022-08-14T00:44:31;25.60;41.50
68480;DHT22;55469;48.934;12.050;2022-08-14T00:46:57;25.60;41.50
68480;DHT22;55469;48.934;12.050;2022-08-14T00:49:23;25.50;41.50
68480;DHT22;55469;48.934;12.050;2022-08-14T00:51:49;25.50;41.60
68480;DHT22;55469;48.934;12.050;2022-08-14T00:54:16;25.50;41.60
68480;DHT22;55469;48.934;12.050;2022-08-14T00:56:43;25.50;41.60
68480;DHT22;55469;48.934;12.050;2022-08-14T00:59:09;25.50;41.70
68480;DHT22;55469;48.934;12.050;2022-08-14T01:01:36;25.50;41.70
68480;DHT22;55469;48.934;12.050;2022-08-14T01:04:03;25.50;41.70
68480;DHT22;55469;48.934;12.050;2022-08-14T01:06:30;25.50;41.70
68480;DHT22;55469;48.934;12.050;2022-08-14T01:08:58;25.40;41.80
68480;DHT22;55469;48.934;12.050;2022-08-14T01:11:26;25.40;41.80
68480;DHT22;55469;48.934;12.050;2022-08-14T01:13:52;25.50;41.90
68480;DHT22;55469;48.934;12.050;2022-08-14T01:16:21;25.40;41.90
68480;DHT22;55469;48.934;12.050;2022-08-14T01:18:49;25.40;41.80
68480;DHT22;55469;48.934;12.050;2022-08-14T01:21:38;25.40;41.90
68480;DHT22;55469;48.934;12.050;2022-08-14T01:24:06;25.40;41.90
68480;DHT22;55469;48.934;12.050;2022-08-14T01:26:33;25.40;41.80
68480;DHT22;55469;48.934;12.050;2022-08-14T01:29:00;25.40;41.80
68480;DHT22;55469;48.934;12.050;2022-08-14T01:31:31;25.40;41.90
68480;DHT22;55469;48.934;12.050;2022-08-14T01:34:01;25.40;41.90
68480;DHT22;55469;48.934;12.050;2022-08-14T01:36:29;25.40;41.90
68480;DHT22;55469;48.934;12.050;2022-08-14T01:39:02;25.40;42.00
68480;DHT22;55469;48.934;12.050;2022-08-14T01:41:36;25.40;42.00
68480;DHT22;55469;48.934;12.050;2022-08-14T01:44:07;25.40;42.00
68480;DHT22;55469;48.934;12.050;2022-08-14T01:46:38;25.30;41.90
68480;DHT22;55469;48.934;12.050;2022-08-14T01:49:07;25.40;42.00
68480;DHT22;55469;48.934;12.050;2022-08-14T01:51:34;25.40;42.10
68480;DHT22;55469;48.934;12.050;2022-08-14T01:54:06;25.30;42.10
68480;DHT22;55469;48.934;12.050;2022-08-14T01:56:35;25.30;42.20
68480;DHT22;55469;48.934;12.050;2022-08-14T01:59:07;25.30;42.20
68480;DHT22;55469;48.934;12.050;2022-08-14T02:01:50;25.30;42.30
68480;DHT22;55469;48.934;12.050;2022-08-14T02:04:18;25.30;42.40
68480;DHT22;55469;48.934;12.050;2022-08-14T02:06:46;25.30;42.40
68480;DHT22;55469;48.934;12.050;2022-08-14T02:09:12;25.30;42.40
68480;DHT22;55469;48.934;12.050;2022-08-14T02:11:38;25.30;42.40
68480;DHT22;55469;48.934;12.050;2022-08-14T02:14:07;25.20;42.50
68480;DHT22;55469;48.934;12.050;2022-08-14T02:16:43;25.20;42.50
68480;DHT22;55469;48.934;12.050;2022-08-14T02:19:14;25.30;42.60
68480;DHT22;55469;48.934;12.050;2022-08-14T02:21:43;25.30;42.60
68480;DHT22;55469;48.934;12.050;2022-08-14T02:24:11;25.20;42.60
68480;DHT22;55469;48.934;12.050;2022-08-14T02:26:39;25.20;42.70
68480;DHT22;55469;48.934;12.050;2022-08-14T02:29:08;25.20;42.70
68480;DHT22;55469;48.934;12.050;2022-08-14T02:31:40;25.20;42.70
68480;DHT22;55469;48.934;12.050;2022-08-14T02:34:16;25.20;42.60
68480;DHT22;55469;48.934;12.050;2022-08-14T02:36:44;25.20;42.70
68480;DHT22;55469;48.934;12.050;2022-08-14T02:39:13;25.20;42.70
68480;DHT22;55469;48.934;12.050;2022-08-14T02:41:40;25.20;42.70
68480;DHT22;55469;48.934;12.050;2022-08-14T02:44:08;25.20;42.70
68480;DHT22;55469;48.934;12.050;2022-08-14T02:46:39;25.20;42.70
68480;DHT22;55469;48.934;12.050;2022-08-14T02:49:07;25.10;42.70
68480;DHT22;55469;48.934;12.050;2022-08-14T02:51:34;25.20;42.80
68480;DHT22;55469;48.934;12.050;2022-08-14T02:54:00;25.20;42.80
68480;DHT22;55469;48.934;12.050;2022-08-14T02:56:26;25.20;42.80
68480;DHT22;55469;48.934;12.050;2022-08-14T02:58:55;25.20;42.80
68480;DHT22;55469;48.934;12.050;2022-08-14T03:01:23;25.20;42.80
68480;DHT22;55469;48.934;12.050;2022-08-14T03:03:50;25.20;42.70
68480;DHT22;55469;48.934;12.050;2022-08-14T03:06:18;25.10;42.70
68480;DHT22;55469;48.934;12.050;2022-08-14T03:08:51;25.20;42.80
68480;DHT22;55469;48.934;12.050;2022-08-14T03:11:19;25.10;42.70
68480;DHT22;55469;48.934;12.050;2022-08-14T03:13:47;25.10;42.70
68480;DHT22;55469;48.934;12.050;2022-08-14T03:16:20;25.10;42.80
68480;DHT22;55469;48.934;12.050;2022-08-14T03:18:50;25.10;42.70
68480;DHT22;55469;48.934;12.050;2022-08-14T03:21:24;25.10;42.80
68480;DHT22;55469;48.934;12.050;2022-08-14T03:23:52;25.10;42.80
68480;DHT22;55469;48.934;12.050;2022-08-14T03:26:34;25.00;42.70
68480;DHT22;55469;48.934;12.050;2022-08-14T03:29:02;25.00;42.70
68480;DHT22;55469;48.934;12.050;2022-08-14T03:31:28;25.00;42.80
68480;DHT22;55469;48.934;12.050;2022-08-14T03:33:54;25.00;42.70
68480;DHT22;55469;48.934;12.050;2022-08-14T03:36:21;25.00;42.70
68480;DHT22;55469;48.934;12.050;2022-08-14T03:38:48;25.00;42.70
68480;DHT22;55469;48.934;12.050;2022-08-14T03:41:19;25.00;42.70
68480;DHT22;55469;48.934;12.050;2022-08-14T03:43:50;25.00;42.80
68480;DHT22;55469;48.934;12.050;2022-08-14T03:46:23;25.00;42.70
68480;DHT22;55469;48.934;12.050;2022-08-14T03:48:53;25.00;42.70
68480;DHT22;55469;48.934;12.050;2022-08-14T03:51:20;25.00;42.80
68480;DHT22;55469;48.934;12.050;2022-08-14T03:53:47;25.00;42.70
68480;DHT22;55469;48.934;12.050;2022-08-14T03:56:15;25.00;42.80
68480;DHT22;55469;48.934;12.050;2022-08-14T03:58:44;25.00;42.90
68480;DHT22;55469;48.934;12.050;2022-08-14T04:01:15;25.00;42.80
68480;DHT22;55469;48.934;12.050;2022-08-14T04:03:47;25.00;42.90
68480;DHT22;55469;48.934;12.050;2022-08-14T04:06:16;25.00;42.90
68480;DHT22;55469;48.934;12.050;2022-08-14T04:08:42;25.00;42.90
68480;DHT22;55469;48.934;12.050;2022-08-14T04:11:08;25.00;42.90
68480;DHT22;55469;48.934;12.050;2022-08-14T04:13:37;25.00;42.90
68480;DHT22;55469;48.934;12.050;2022-08-14T04:16:07;25.00;42.90
68480;DHT22;55469;48.934;12.050;2022-08-14T04:18:46;25.00;43.00
68480;DHT22;55469;48.934;12.050;2022-08-14T04:21:15;25.00;43.00
68480;DHT22;55469;48.934;12.050;2022-08-14T04:23:41;25.00;43.00
68480;DHT22;55469;48.934;12.050;2022-08-14T04:26:10;25.00;43.00
68480;DHT22;55469;48.934;12.050;2022-08-14T04:28:38;25.00;43.00
68480;DHT22;55469;48.934;12.050;2022-08-14T04:31:05;25.00;43.10
68480;DHT22;55469;48.934;12.050;2022-08-14T04:33:32;25.00;43.10
68480;DHT22;55469;48.934;12.050;2022-08-14T04:35:58;25.00;43.20
68480;DHT22;55469;48.934;12.050;2022-08-14T04:38:24;25.00;43.20
68480;DHT22;55469;48.934;12.050;2022-08-14T04:41:09;25.00;43.30
68480;DHT22;55469;48.934;12.050;2022-08-14T04:43:53;25.00;43.30
68480;DHT22;55469;48.934;12.050;2022-08-14T04:46:21;25.00;43.30
68480;DHT22;55469;48.934;12.050;2022-08-14T04:48:48;25.00;43.40
68480;DHT22;55469;48.934;12.050;2022-08-14T04:51:18;24.90;43.40
68480;DHT22;55469;48.934;12.050;2022-08-14T04:53:47;25.00;43.60
68480;DHT22;55469;48.934;12.050;2022-08-14T04:56:16;25.00;43.70
68480;DHT22;55469;48.934;12.050;2022-08-14T04:58:46;25.00;43.70
68480;DHT22;55469;48.934;12.050;2022-08-14T05:01:13;24.90;43.70
68480;DHT22;55469;48.934;12.050;2022-08-14T05:03:39;24.90;43.80
68480;DHT22;55469;48.934;12.050;2022-08-14T05:06:07;24.90;43.90
68480;DHT22;55469;48.934;12.050;2022-08-14T05:08:35;24.90;43.90
68480;DHT22;55469;48.934;12.050;2022-08-14T05:11:04;24.90;43.90
68480;DHT22;55469;48.934;12.050;2022-08-14T05:13:32;24.90;44.00
68480;DHT22;55469;48.934;12.050;2022-08-14T05:16:00;24.90;44.00
68480;DHT22;55469;48.934;12.050;2022-08-14T05:18:44;24.90;44.10
68480;DHT22;55469;48.934;12.050;2022-08-14T05:21:11;25.00;44.10
68480;DHT22;55469;48.934;12.050;2022-08-14T05:23:38;24.80;44.80
68480;DHT22;55469;48.934;12.050;2022-08-14T05:26:05;24.80;44.60
68480;DHT22;55469;48.934;12.050;2022-08-14T05:28:39;24.80;44.40
68480;DHT22;55469;48.934;12.050;2022-08-14T05:31:10;24.80;44.40
68480;DHT22;55469;48.934;12.050;2022-08-14T05:33:40;24.80;44.20
68480;DHT22;55469;48.934;12.050;2022-08-14T05:36:08;24.80;45.20
68480;DHT22;55469;48.934;12.050;2022-08-14T05:38:41;24.80;45.10
68480;DHT22;55469;48.934;12.050;2022-08-14T05:41:13;24.30;48.80
68480;DHT22;55469;48.934;12.050;2022-08-14T05:43:43;24.00;50.40
68480;DHT22;55469;48.934;12.050;2022-08-14T05:46:15;24.10;50.00
68480;DHT22;55469;48.934;12.050;2022-08-14T05:48:52;24.20;49.70
68480;DHT22;55469;48.934;12.050;2022-08-14T05:51:21;24.00;51.00
68480;DHT22;55469;48.934;12.050;2022-08-14T05:53:48;24.10;50.60
68480;DHT22;55469;48.934;12.050;2022-08-14T05:56:14;24.20;50.20
68480;DHT22;55469;48.934;12.050;2022-08-14T05:58:40;24.10;51.40
68480;DHT22;55469;48.934;12.050;2022-08-14T06:01:06;23.90;52.10
68480;DHT22;55469;48.934;12.050;2022-08-14T06:03:33;23.80;52.50
68480;DHT22;55469;48.934;12.050;2022-08-14T06:05:59;23.90;52.50
68480;DHT22;55469;48.934;12.050;2022-08-14T06:08:27;24.10;52.00
68480;DHT22;55469;48.934;12.050;2022-08-14T06:10:57;24.10;51.20
68480;DHT22;55469;48.934;12.050;2022-08-14T06:13:31;24.20;51.10
68480;DHT22;55469;48.934;12.050;2022-08-14T06:15:58;24.20;51.10
68480;DHT22;55469;48.934;12.050;2022-08-14T06:18:24;24.20;51.20
68480;DHT22;55469;48.934;12.050;2022-08-14T06:20:50;24.20;51.60
68480;DHT22;55469;48.934;12.050;2022-08-14T06:23:16;24.10;52.10
68480;DHT22;55469;48.934;12.050;2022-08-14T06:25:42;24.10;52.30
68480;DHT22;55469;48.934;12.050;2022-08-14T06:28:18;24.10;52.20
68480;DHT22;55469;48.934;12.050;2022-08-14T06:30:46;24.20;51.70
68480;DHT22;55469;48.934;12.050;2022-08-14T06:33:12;24.30;51.50
68480;DHT22;55469;48.934;12.050;2022-08-14T06:35:39;24.30;51.30
68480;DHT22;55469;48.934;12.050;2022-08-14T06:38:05;24.30;51.80
68480;DHT22;55469;48.934;12.050;2022-08-14T06:40:32;24.30;51.40
68480;DHT22;55469;48.934;12.050;2022-08-14T06:43:05;24.20;52.10
68480;DHT22;55469;48.934;12.050;2022-08-14T06:45:35;24.30;52.00
68480;DHT22;55469;48.934;12.050;2022-08-14T06:48:02;24.20;52.20
68480;DHT22;55469;48.934;12.050;2022-08-14T06:50:30;24.20;51.90
68480;DHT22;55469;48.934;12.050;2022-08-14T06:52:57;24.30;51.80
68480;DHT22;55469;48.934;12.050;2022-08-14T06:55:23;24.30;51.70
68480;DHT22;55469;48.934;12.050;2022-08-14T06:57:50;24.40;51.00
68480;DHT22;55469;48.934;12.050;2022-08-14T07:00:27;24.40;51.10
68480;DHT22;55469;48.934;12.050;2022-08-14T07:02:54;24.30;52.00
68480;DHT22;55469;48.934;12.050;2022-08-14T07:05:39;24.30;52.10
68480;DHT22;55469;48.934;12.050;2022-08-14T07:08:25;24.30;51.60
68480;DHT22;55469;48.934;12.050;2022-08-14T07:10:56;24.40;50.80
68480;DHT22;55469;48.934;12.050;2022-08-14T07:13:26;24.60;50.20
68480;DHT22;55469;48.934;12.050;2022-08-14T07:15:54;24.60;50.40
68480;DHT22;55469;48.934;12.050;2022-08-14T07:18:23;24.60;50.20
68480;DHT22;55469;48.934;12.050;2022-08-14T07:20:50;24.70;50.00
68480;DHT22;55469;48.934;12.050;2022-08-14T07:23:16;24.80;50.00
68480;DHT22;55469;48.934;12.050;2022-08-14T07:25:43;24.80;50.20
68480;DHT22;55469;48.934;12.050;2022-08-14T07:28:15;24.80;49.70
68480;DHT22;55469;48.934;12.050;2022-08-14T07:30:43;24.90;50.00
68480;DHT22;55469;48.934;12.050;2022-08-14T07:33:10;24.80;50.60
68480;DHT22;55469;48.934;12.050;2022-08-14T07:35:38;25.00;50.00
68480;DHT22;55469;48.934;12.050;2022-08-14T07:38:05;24.90;50.30
68480;DHT22;55469;48.934;12.050;2022-08-14T07:40:32;24.90;50.50
68480;DHT22;55469;48.934;12.050;2022-08-14T07:43:00;24.90;50.30
68480;DHT22;55469;48.934;12.050;2022-08-14T07:45:27;24.90;50.30
68480;DHT22;55469;48.934;12.050;2022-08-14T07:47:53;25.00;49.70
68480;DHT22;55469;48.934;12.050;2022-08-14T07:50:22;25.00;49.80
68480;DHT22;55469;48.934;12.050;2022-08-14T07:52:49;25.10;49.20
68480;DHT22;55469;48.934;12.050;2022-08-14T07:55:16;25.20;49.40
68480;DHT22;55469;48.934;12.050;2022-08-14T07:57:44;25.20;49.30
68480;DHT22;55469;48.934;12.050;2022-08-14T08:00:17;25.20;49.20
68480;DHT22;55469;48.934;12.050;2022-08-14T08:02:46;25.30;48.90
68480;DHT22;55469;48.934;12.050;2022-08-14T08:05:15;25.40;48.70
68480;DHT22;55469;48.934;12.050;2022-08-14T08:07:42;25.40;48.60
68480;DHT22;55469;48.934;12.050;2022-08-14T08:10:15;25.40;48.50
68480;DHT22;55469;48.934;12.050;2022-08-14T08:13:09;25.40;48.40
68480;DHT22;55469;48.934;12.050;2022-08-14T08:15:43;25.40;48.30
68480;DHT22;55469;48.934;12.050;2022-08-14T08:18:15;25.40;48.60
68480;DHT22;55469;48.934;12.050;2022-08-14T08:20:44;25.40;49.10
68480;DHT22;55469;48.934;12.050;2022-08-14T08:23:12;25.40;49.00
68480;DHT22;55469;48.934;12.050;2022-08-14T08:25:41;25.40;48.90
68480;DHT22;55469;48.934;12.050;2022-08-14T08:30:48;25.50;49.20
68480;DHT22;55469;48.934;12.050;2022-08-14T08:33:20;25.50;49.50
68480;DHT22;55469;48.934;12.050;2022-08-14T08:35:47;25.50;49.20
68480;DHT22;55469;48.934;12.050;2022-08-14T08:38:16;25.50;49.00
68480;DHT22;55469;48.934;12.050;2022-08-14T08:40:49;25.50;51.10
68480;DHT22;55469;48.934;12.050;2022-08-14T08:43:31;25.60;50.50
68480;DHT22;55469;48.934;12.050;2022-08-14T08:48:43;25.80;49.60
68480;DHT22;55469;48.934;12.050;2022-08-14T08:51:18;25.90;49.60
68480;DHT22;55469;48.934;12.050;2022-08-14T08:54:01;26.00;49.50
68480;DHT22;55469;48.934;12.050;2022-08-14T08:56:40;26.00;49.10
68480;DHT22;55469;48.934;12.050;2022-08-14T08:59:27;26.00;48.50
68480;DHT22;55469;48.934;12.050;2022-08-14T09:02:00;26.10;50.10
68480;DHT22;55469;48.934;12.050;2022-08-14T09:04:33;26.20;48.20
68480;DHT22;55469;48.934;12.050;2022-08-14T09:07:04;26.30;48.10
68480;DHT22;55469;48.934;12.050;2022-08-14T09:09:31;26.30;47.80
68480;DHT22;55469;48.934;12.050;2022-08-14T09:11:59;26.30;47.60
68480;DHT22;55469;48.934;12.050;2022-08-14T09:14:29;26.30;47.70
68480;DHT22;55469;48.934;12.050;2022-08-14T09:16:57;26.40;47.90
68480;DHT22;55469;48.934;12.050;2022-08-14T09:19:25;26.40;47.60
68480;DHT22;55469;48.934;12.050;2022-08-14T09:21:51;26.40;46.90
68480;DHT22;55469;48.934;12.050;2022-08-14T09:24:19;26.40;46.70
68480;DHT22;55469;48.934;12.050;2022-08-14T09:26:45;26.40;46.90
68480;DHT22;55469;48.934;12.050;2022-08-14T09:29:11;26.30;46.70
68480;DHT22;55469;48.934;12.050;2022-08-14T09:31:39;26.30;46.80
68480;DHT22;55469;48.934;12.050;2022-08-14T09:47:55;26.40;47.00
68480;DHT22;55469;48.934;12.050;2022-08-14T09:50:43;26.40;46.60
68480;DHT22;55469;48.934;12.050;2022-08-14T09:54:05;26.40;46.80
68480;DHT22;55469;48.934;12.050;2022-08-14T09:57:00;26.30;46.70
68480;DHT22;55469;48.934;12.050;2022-08-14T09:59:39;26.30;46.70
68480;DHT22;55469;48.934;12.050;2022-08-14T10:02:25;26.40;46.70
68480;DHT22;55469;48.934;12.050;2022-08-14T10:05:00;26.40;46.60
68480;DHT22;55469;48.934;12.050;2022-08-14T10:07:45;26.40;46.50
68480;DHT22;55469;48.934;12.050;2022-08-14T10:10:36;26.30;46.40
68480;DHT22;55469;48.934;12.050;2022-08-14T10:13:06;26.30;46.40
68480;DHT22;55469;48.934;12.050;2022-08-14T10:15:46;26.40;46.70
68480;DHT22;55469;48.934;12.050;2022-08-14T10:18:15;26.30;46.50
68480;DHT22;55469;48.934;12.050;2022-08-14T10:20:55;26.40;46.80
68480;DHT22;55469;48.934;12.050;2022-08-14T10:23:25;26.40;47.80
68480;DHT22;55469;48.934;12.050;2022-08-14T10:25:57;26.40;46.80
68480;DHT22;55469;48.934;12.050;2022-08-14T10:28:43;26.40;46.70
68480;DHT22;55469;48.934;12.050;2022-08-14T10:31:24;26.40;46.60
68480;DHT22;55469;48.934;12.050;2022-08-14T10:34:17;26.50;46.10
68480;DHT22;55469;48.934;12.050;2022-08-14T10:36:45;26.40;45.80
68480;DHT22;55469;48.934;12.050;2022-08-14T10:41:46;26.40;45.90
68480;DHT22;55469;48.934;12.050;2022-08-14T10:44:17;26.50;46.00
68480;DHT22;55469;48.934;12.050;2022-08-14T10:49:25;26.50;45.70
68480;DHT22;55469;48.934;12.050;2022-08-14T10:51:59;26.50;45.40
68480;DHT22;55469;48.934;12.050;2022-08-14T10:54:41;26.50;45.00
68480;DHT22;55469;48.934;12.050;2022-08-14T11:00:12;26.50;45.00
68480;DHT22;55469;48.934;12.050;2022-08-14T11:02:41;26.60;45.00
68480;DHT22;55469;48.934;12.050;2022-08-14T11:05:15;26.60;44.80
68480;DHT22;55469;48.934;12.050;2022-08-14T11:08:02;26.60;44.80
68480;DHT22;55469;48.934;12.050;2022-08-14T11:10:52;26.70;44.80
68480;DHT22;55469;48.934;12.050;2022-08-14T11:13:28;26.70;44.70
68480;DHT22;55469;48.934;12.050;2022-08-14T11:15:56;26.70;44.50
68480;DHT22;55469;48.934;12.050;2022-08-14T11:18:25;26.70;44.30
68480;DHT22;55469;48.934;12.050;2022-08-14T11:20:55;26.80;46.00
68480;DHT22;55469;48.934;12.050;2022-08-14T11:23:28;26.90;45.90
68480;DHT22;55469;48.934;12.050;2022-08-14T11:25:56;27.00;44.90
68480;DHT22;55469;48.934;12.050;2022-08-14T11:28:26;27.00;44.80
68480;DHT22;55469;48.934;12.050;2022-08-14T11:30:54;27.00;45.50
68480;DHT22;55469;48.934;12.050;2022-08-14T11:33:24;27.20;45.20
68480;DHT22;55469;48.934;12.050;2022-08-14T11:35:53;27.20;44.40
68480;DHT22;55469;48.934;12.050;2022-08-14T11:38:19;27.20;44.10
68480;DHT22;55469;48.934;12.050;2022-08-14T11:40:45;27.20;44.00
68480;DHT22;55469;48.934;12.050;2022-08-14T11:43:11;27.20;43.80
68480;DHT22;55469;48.934;12.050;2022-08-14T11:45:38;27.20;43.70
68480;DHT22;55469;48.934;12.050;2022-08-14T11:50:40;27.20;43.00
68480;DHT22;55469;48.934;12.050;2022-08-14T11:53:34;27.10;43.00
68480;DHT22;55469;48.934;12.050;2022-08-14T11:56:04;27.10;43.20
68480;DHT22;55469;48.934;12.050;2022-08-14T11:58:35;27.10;43.10
68480;DHT22;55469;48.934;12.050;2022-08-14T12:01:05;27.20;42.90
68480;DHT22;55469;48.934;12.050;2022-08-14T12:03:40;27.20;42.80
68480;DHT22;55469;48.934;12.050;2022-08-14T12:06:12;27.20;42.80
68480;DHT22;55469;48.934;12.050;2022-08-14T12:08:42;27.20;42.60
68480;DHT22;55469;48.934;12.050;2022-08-14T12:11:10;27.10;42.40
68480;DHT22;55469;48.934;12.050;2022-08-14T12:13:41;27.10;42.40
68480;DHT22;55469;48.934;12.050;2022-08-14T12:16:09;27.10;42.30
68480;DHT22;55469;48.934;12.050;2022-08-14T12:18:42;27.10;42.30
68480;DHT22;55469;48.934;12.050;2022-08-14T12:21:15;27.10;42.10
68480;DHT22;55469;48.934;12.050;2022-08-14T12:23:44;27.10;41.60
68480;DHT22;55469;48.934;12.050;2022-08-14T12:26:18;27.20;41.50
68480;DHT22;55469;48.934;12.050;2022-08-14T12:28:48;27.20;41.40
68480;DHT22;55469;48.934;12.050;2022-08-14T12:31:18;27.30;41.30
68480;DHT22;55469;48.934;12.050;2022-08-14T12:33:59;27.30;40.80
68480;DHT22;55469;48.934;12.050;2022-08-14T12:36:26;27.30;40.70
68480;DHT22;55469;48.934;12.050;2022-08-14T12:38:59;27.30;40.60
68480;DHT22;55469;48.934;12.050;2022-08-14T12:41:30;27.30;40.90
68480;DHT22;55469;48.934;12.050;2022-08-14T12:44:02;27.30;40.90
68480;DHT22;55469;48.934;12.050;2022-08-14T12:46:38;27.30;41.00
68480;DHT22;55469;48.934;12.050;2022-08-14T12:49:15;27.30;40.90
68480;DHT22;55469;48.934;12.050;2022-08-14T12:51:42;27.40;40.50
68480;DHT22;55469;48.934;12.050;2022-08-14T12:54:14;27.30;40.30
68480;DHT22;55469;48.934;12.050;2022-08-14T12:56:42;27.40;40.30
68480;DHT22;55469;48.934;12.050;2022-08-14T12:59:10;27.40;40.40
68480;DHT22;55469;48.934;12.050;2022-08-14T13:01:37;27.40;40.40
68480;DHT22;55469;48.934;12.050;2022-08-14T13:04:07;27.30;40.50
68480;DHT22;55469;48.934;12.050;2022-08-14T13:06:43;27.40;41.30
68480;DHT22;55469;48.934;12.050;2022-08-14T13:09:12;27.40;40.20
68480;DHT22;55469;48.934;12.050;2022-08-14T13:11:43;27.40;41.40
68480;DHT22;55469;48.934;12.050;2022-08-14T13:14:11;27.50;40.30
68480;DHT22;55469;48.934;12.050;2022-08-14T13:16:40;27.70;39.70
68480;DHT22;55469;48.934;12.050;2022-08-14T13:19:10;27.70;40.60
68480;DHT22;55469;48.934;12.050;2022-08-14T13:21:45;27.70;40.60
68480;DHT22;55469;48.934;12.050;2022-08-14T13:24:15;27.70;40.30
68480;DHT22;55469;48.934;12.050;2022-08-14T13:26:50;27.70;39.60
68480;DHT22;55469;48.934;12.050;2022-08-14T13:29:19;27.80;39.50
68480;DHT22;55469;48.934;12.050;2022-08-14T13:31:51;27.80;39.00
68480;DHT22;55469;48.934;12.050;2022-08-14T13:34:24;27.90;39.00
68480;DHT22;55469;48.934;12.050;2022-08-14T13:36:52;27.90;38.90
68480;DHT22;55469;48.934;12.050;2022-08-14T13:39:19;28.00;39.20
68480;DHT22;55469;48.934;12.050;2022-08-14T13:41:46;28.00;39.10
68480;DHT22;55469;48.934;12.050;2022-08-14T13:44:13;28.00;39.40
68480;DHT22;55469;48.934;12.050;2022-08-14T13:46:41;27.90;39.30
68480;DHT22;55469;48.934;12.050;2022-08-14T13:49:11;27.90;39.30
68480;DHT22;55469;48.934;12.050;2022-08-14T13:51:39;27.90;39.20
68480;DHT22;55469;48.934;12.050;2022-08-14T13:54:15;28.00;39.20
68480;DHT22;55469;48.934;12.050;2022-08-14T13:56:42;28.00;38.70
68480;DHT22;55469;48.934;12.050;2022-08-14T13:59:09;28.00;38.80
68480;DHT22;55469;48.934;12.050;2022-08-14T14:01:35;28.00;38.70
68480;DHT22;55469;48.934;12.050;2022-08-14T14:04:04;27.90;39.00
68480;DHT22;55469;48.934;12.050;2022-08-14T14:06:32;27.90;39.10
68480;DHT22;55469;48.934;12.050;2022-08-14T14:08:58;27.90;39.20
68480;DHT22;55469;48.934;12.050;2022-08-14T14:11:26;27.90;40.90
68480;DHT22;55469;48.934;12.050;2022-08-14T14:13:54;28.00;40.20
68480;DHT22;55469;48.934;12.050;2022-08-14T14:16:21;28.00;40.60
68480;DHT22;55469;48.934;12.050;2022-08-14T14:18:52;28.00;41.00
68480;DHT22;55469;48.934;12.050;2022-08-14T14:21:26;28.00;41.60
68480;DHT22;55469;48.934;12.050;2022-08-14T14:23:53;27.90;41.90
68480;DHT22;55469;48.934;12.050;2022-08-14T14:26:20;27.90;41.90
68480;DHT22;55469;48.934;12.050;2022-08-14T14:28:48;27.90;42.20
68480;DHT22;55469;48.934;12.050;2022-08-14T14:31:21;27.90;42.20
68480;DHT22;55469;48.934;12.050;2022-08-14T14:33:56;27.90;42.10
68480;DHT22;55469;48.934;12.050;2022-08-14T14:36:26;27.80;42.50
68480;DHT22;55469;48.934;12.050;2022-08-14T14:38:59;27.90;43.30
68480;DHT22;55469;48.934;12.050;2022-08-14T14:41:29;27.90;43.00
68480;DHT22;55469;48.934;12.050;2022-08-14T14:43:58;27.90;42.80
68480;DHT22;55469;48.934;12.050;2022-08-14T14:46:25;27.90;42.30
68480;DHT22;55469;48.934;12.050;2022-08-14T14:49:01;27.90;42.30
68480;DHT22;55469;48.934;12.050;2022-08-14T14:51:28;27.90;42.30
68480;DHT22;55469;48.934;12.050;2022-08-14T14:53:55;27.90;42.40
68480;DHT22;55469;48.934;12.050;2022-08-14T14:56:22;27.90;42.30
68480;DHT22;55469;48.934;12.050;2022-08-14T14:58:50;27.90;42.20
68480;DHT22;55469;48.934;12.050;2022-08-14T15:01:16;27.90;42.40
68480;DHT22;55469;48.934;12.050;2022-08-14T15:03:47;27.90;42.30
68480;DHT22;55469;48.934;12.050;2022-08-14T15:06:14;28.00;42.20
68480;DHT22;55469;48.934;12.050;2022-08-14T15:08:39;28.00;43.10
68480;DHT22;55469;48.934;12.050;2022-08-14T15:11:05;28.00;42.00
68480;DHT22;55469;48.934;12.050;2022-08-14T15:13:33;28.00;42.20
68480;DHT22;55469;48.934;12.050;2022-08-14T15:16:02;27.90;42.20
68480;DHT22;55469;48.934;12.050;2022-08-14T15:18:28;27.90;42.10
68480;DHT22;55469;48.934;12.050;2022-08-14T15:20:55;28.00;42.00
68480;DHT22;55469;48.934;12.050;2022-08-14T15:23:27;28.00;42.00
68480;DHT22;55469;48.934;12.050;2022-08-14T15:25:54;28.00;42.00
68480;DHT22;55469;48.934;12.050;2022-08-14T15:28:21;28.00;41.90
68480;DHT22;55469;48.934;12.050;2022-08-14T15:30:48;28.00;41.90
68480;DHT22;55469;48.934;12.050;2022-08-14T15:33:14;28.00;41.80
68480;DHT22;55469;48.934;12.050;2022-08-14T15:36:00;28.00;41.70
68480;DHT22;55469;48.934;12.050;2022-08-14T15:38:28;28.10;41.70
68480;DHT22;55469;48.934;12.050;2022-08-14T15:40:55;28.10;41.70
68480;DHT22;55469;48.934;12.050;2022-08-14T15:43:21;28.10;41.70
68480;DHT22;55469;48.934;12.050;2022-08-14T15:45:47;28.10;41.80
68480;DHT22;55469;48.934;12.050;2022-08-14T15:48:13;28.10;41.80
68480;DHT22;55469;48.934;12.050;2022-08-14T15:50:38;28.10;41.80
68480;DHT22;55469;48.934;12.050;2022-08-14T15:53:07;28.10;41.60
68480;DHT22;55469;48.934;12.050;2022-08-14T15:55:33;28.10;41.70
68480;DHT22;55469;48.934;12.050;2022-08-14T15:57:59;28.10;42.90
68480;DHT22;55469;48.934;12.050;2022-08-14T16:00:26;28.10;41.80
68480;DHT22;55469;48.934;12.050;2022-08-14T16:03:10;28.10;41.80